createdAt,value
2018-05-07T00:01:57.739Z,13.74
2018-05-07T00:04:30.186Z,13.79
2018-05-07T00:07:05.905Z,13.72
2018-05-07T00:09:38.379Z,13.62
2018-05-07T00:12:10.846Z,13.33
2018-05-07T00:14:43.099Z,13.50
2018-05-07T00:17:16.575Z,13.58
2018-05-07T00:19:49.016Z,13.70
2018-05-07T00:22:21.296Z,13.84
2018-05-07T00:24:53.781Z,13.97
2018-05-07T00:27:26.119Z,13.83
2018-05-07T00:29:58.677Z,13.68
2018-05-07T00:32:34.166Z,13.69
2018-05-07T00:35:06.555Z,13.72
2018-05-07T00:37:41.879Z,13.82
2018-05-07T00:40:14.340Z,13.73
2018-05-07T00:42:46.659Z,13.69
2018-05-07T00:45:19.035Z,13.93
2018-05-07T00:47:51.709Z,13.90
2018-05-07T00:50:24.202Z,13.86
2018-05-07T00:52:59.693Z,13.90
2018-05-07T00:55:32.126Z,13.72
2018-05-07T00:58:04.491Z,13.71
2018-05-07T01:00:36.857Z,13.79
2018-05-07T01:03:12.276Z,13.80
2018-05-07T01:05:44.597Z,13.70
2018-05-07T01:08:17.198Z,13.47
2018-05-07T01:10:49.569Z,13.68
2018-05-07T01:13:25.144Z,13.76
2018-05-07T01:15:57.660Z,13.83
2018-05-07T01:18:33.139Z,13.90
2018-05-07T01:21:05.565Z,13.93
2018-05-07T01:23:38.132Z,13.76
2018-05-07T01:26:10.687Z,13.91
2018-05-07T01:28:43.042Z,13.91
2018-05-07T01:31:18.875Z,13.97
2018-05-07T01:33:54.593Z,13.66
2018-05-07T01:36:26.961Z,13.43
2018-05-07T01:39:02.713Z,13.65
2018-05-07T01:41:35.103Z,13.72
2018-05-07T01:44:10.536Z,13.67
2018-05-07T01:46:43.028Z,13.76
2018-05-07T01:49:18.543Z,13.77
2018-05-07T01:51:50.966Z,13.84
2018-05-07T01:54:26.489Z,13.88
2018-05-07T01:56:58.958Z,14.03
2018-05-07T01:59:31.229Z,13.92
2018-05-07T02:02:03.575Z,13.90
2018-05-07T02:04:36.077Z,13.94
2018-05-07T02:07:08.403Z,13.54
2018-05-07T02:09:43.808Z,13.73
2018-05-07T02:12:16.247Z,13.70
2018-05-07T02:14:48.800Z,13.46
2018-05-07T02:17:21.146Z,13.30
2018-05-07T02:19:53.687Z,13.38
2018-05-07T02:22:26.164Z,13.50
2018-05-07T02:25:01.748Z,13.56
2018-05-07T02:27:34.256Z,13.69
2018-05-07T02:30:09.892Z,13.71
2018-05-07T02:32:45.560Z,13.61
2018-05-07T02:35:18.169Z,13.66
2018-05-07T02:37:50.623Z,13.68
2018-05-07T02:40:23.003Z,13.71
2018-05-07T02:42:55.293Z,13.72
2018-05-07T02:45:27.779Z,13.70
2018-05-07T02:48:00.243Z,13.79
2018-05-07T02:50:32.903Z,13.74
2018-05-07T02:53:05.367Z,13.68
2018-05-07T02:55:40.910Z,13.58
2018-05-07T02:58:13.344Z,13.33
2018-05-07T03:00:48.827Z,13.26
2018-05-07T03:03:21.249Z,13.31
2018-05-07T03:05:56.953Z,13.23
2018-05-07T03:08:29.346Z,13.32
2018-05-07T03:11:01.816Z,13.51
2018-05-07T03:13:34.151Z,13.52
2018-05-07T03:16:09.830Z,13.62
2018-05-07T03:18:42.194Z,13.74
2018-05-07T03:21:17.729Z,13.68
2018-05-07T03:23:50.048Z,13.72
2018-05-07T03:26:22.448Z,13.73
2018-05-07T03:28:54.966Z,13.61
2018-05-07T03:31:27.277Z,13.80
2018-05-07T03:34:02.745Z,13.79
2018-05-07T03:36:38.217Z,13.77
2018-05-07T03:39:10.553Z,13.71
2018-05-07T03:41:46.176Z,13.75
2018-05-07T03:44:18.624Z,13.77
2018-05-07T03:46:50.971Z,13.85
2018-05-07T03:49:23.338Z,13.83
2018-05-07T03:51:58.748Z,13.69
2018-05-07T03:54:31.199Z,13.48
2018-05-07T03:57:06.569Z,13.22
2018-05-07T03:59:39.096Z,13.06
2018-05-07T04:02:11.537Z,13.29
2018-05-07T04:04:43.965Z,13.41
2018-05-07T04:07:19.821Z,13.32
2018-05-07T04:09:52.187Z,13.16
2018-05-07T04:12:27.880Z,13.04
2018-05-07T04:15:00.264Z,13.02
2018-05-07T04:17:47.916Z,13.05
2018-05-07T04:20:32.371Z,12.84
2018-05-07T04:23:16.816Z,12.92
2018-05-07T04:25:49.389Z,13.16
2018-05-07T04:28:24.837Z,13.29
2018-05-07T04:30:57.290Z,13.29
2018-05-07T04:33:32.959Z,13.39
2018-05-07T04:36:10.251Z,13.39
2018-05-07T04:38:45.958Z,13.40
2018-05-07T04:41:18.309Z,13.58
2018-05-07T04:43:50.577Z,13.65
2018-05-07T04:46:22.998Z,13.60
2018-05-07T04:48:58.633Z,13.63
2018-05-07T04:51:31.033Z,13.64
2018-05-07T04:54:03.575Z,13.47
2018-05-07T04:56:35.831Z,13.45
2018-05-07T04:59:11.468Z,13.45
2018-05-07T05:01:43.877Z,13.51
2018-05-07T05:04:16.177Z,13.60
2018-05-07T05:06:48.600Z,13.56
2018-05-07T05:09:21.059Z,13.36
2018-05-07T05:11:53.459Z,13.25
2018-05-07T05:14:28.962Z,13.33
2018-05-07T05:17:01.381Z,13.55
2018-05-07T05:19:37.272Z,13.47
2018-05-07T05:22:09.884Z,13.48
2018-05-07T05:24:42.365Z,13.61
2018-05-07T05:27:14.810Z,13.69
2018-05-07T05:29:47.169Z,13.78
2018-05-07T05:32:19.503Z,13.87
2018-05-07T05:34:52.076Z,13.93
2018-05-07T05:37:29.307Z,13.94
2018-05-07T05:40:04.777Z,13.91
2018-05-07T05:42:37.269Z,13.82
2018-05-07T05:45:12.911Z,13.94
2018-05-07T05:47:45.467Z,13.99
2018-05-07T05:50:21.119Z,13.86
2018-05-07T05:52:53.412Z,13.70
2018-05-07T05:55:28.797Z,13.67
2018-05-07T05:58:01.285Z,13.81
2018-05-07T06:00:36.716Z,13.82
2018-05-07T06:03:09.151Z,13.67
2018-05-07T06:05:41.779Z,13.61
2018-05-07T06:08:14.201Z,13.66
2018-05-07T06:10:46.596Z,13.83
2018-05-07T06:13:18.909Z,13.90
2018-05-07T06:15:54.348Z,13.93
2018-05-07T06:18:26.853Z,14.08
2018-05-07T06:21:02.482Z,14.16
2018-05-07T06:23:34.803Z,14.19
2018-05-07T06:26:07.326Z,14.22
2018-05-07T06:28:39.856Z,14.32
2018-05-07T06:31:15.205Z,14.26
2018-05-07T06:33:47.703Z,14.27
2018-05-07T06:36:20.055Z,14.23
2018-05-07T06:38:52.681Z,14.29
2018-05-07T06:41:25.305Z,14.23
2018-05-07T06:43:57.841Z,14.23
2018-05-07T06:46:30.295Z,14.28
2018-05-07T06:49:02.794Z,14.32
2018-05-07T06:51:38.361Z,14.42
2018-05-07T06:54:10.691Z,14.61
2018-05-07T06:56:46.501Z,14.54
2018-05-07T06:59:18.991Z,14.46
2018-05-07T07:01:51.428Z,14.61
2018-05-07T07:04:24.653Z,14.72
2018-05-07T07:07:00.299Z,14.69
2018-05-07T07:09:32.651Z,14.38
2018-05-07T07:12:08.105Z,14.47
2018-05-07T07:14:40.721Z,14.45
2018-05-07T07:17:16.235Z,14.51
2018-05-07T07:19:48.722Z,14.63
2018-05-07T07:22:21.083Z,14.65
2018-05-07T07:24:53.507Z,14.71
2018-05-07T07:27:29.009Z,14.78
2018-05-07T07:30:01.453Z,14.92
2018-05-07T07:32:36.947Z,14.95
2018-05-07T07:35:09.345Z,15.19
2018-05-07T07:37:47.585Z,15.38
2018-05-07T07:40:23.227Z,15.50
2018-05-07T07:42:55.793Z,15.62
2018-05-07T07:45:28.286Z,15.84
2018-05-07T07:48:04.100Z,16.04
2018-05-07T07:50:36.549Z,16.25
2018-05-07T07:53:08.943Z,16.33
2018-05-07T07:55:41.223Z,16.50
2018-05-07T07:58:16.966Z,16.68
2018-05-07T08:00:49.387Z,16.62
2018-05-07T08:03:24.973Z,16.73
2018-05-07T08:05:57.440Z,16.84
2018-05-07T08:08:32.989Z,17.08
2018-05-07T08:11:05.555Z,17.26
2018-05-07T08:13:41.195Z,17.30
2018-05-07T08:16:13.736Z,17.64
2018-05-07T08:18:52.264Z,18.08
2018-05-07T08:21:24.554Z,18.35
2018-05-07T08:23:59.878Z,18.43
2018-05-07T08:26:32.171Z,18.56
2018-05-07T08:29:07.898Z,18.77
2018-05-07T08:31:40.235Z,18.66
2018-05-07T08:34:12.767Z,18.69
2018-05-07T08:36:45.379Z,18.53
2018-05-07T08:39:20.923Z,17.86
2018-05-07T08:41:58.229Z,18.69
2018-05-07T08:44:33.794Z,18.88
2018-05-07T08:47:06.168Z,19.52
2018-05-07T08:49:38.644Z,19.83
2018-05-07T08:52:11.066Z,19.45
2018-05-07T08:54:46.704Z,19.67
2018-05-07T08:57:19.123Z,19.76
2018-05-07T08:59:51.425Z,20.28
2018-05-07T09:02:23.956Z,20.25
2018-05-07T09:04:56.244Z,20.63
2018-05-07T09:07:28.716Z,19.77
2018-05-07T09:10:01.180Z,19.67
2018-05-07T09:12:33.465Z,20.14
2018-05-07T09:15:06.038Z,20.04
2018-05-07T09:17:38.543Z,19.89
2018-05-07T09:20:10.895Z,19.81
2018-05-07T09:22:43.602Z,19.55
2018-05-07T09:25:15.928Z,19.24
2018-05-07T09:27:48.196Z,19.04
2018-05-07T09:30:20.550Z,18.97
2018-05-07T09:32:53.065Z,18.81
2018-05-07T09:35:28.705Z,18.74
2018-05-07T09:38:01.059Z,18.72
2018-05-07T09:40:36.837Z,18.73
2018-05-07T09:43:09.453Z,18.88
2018-05-07T09:45:45.234Z,18.80
2018-05-07T09:48:17.802Z,18.73
2018-05-07T09:50:50.044Z,18.45
2018-05-07T09:53:22.327Z,18.02
2018-05-07T09:55:57.835Z,17.93
2018-05-07T09:58:30.196Z,18.23
2018-05-07T10:01:02.793Z,18.25
2018-05-07T10:03:35.128Z,17.95
2018-05-07T10:06:13.768Z,17.63
2018-05-07T10:08:48.116Z,17.74
2018-05-07T10:11:26.103Z,17.25
2018-05-07T10:13:58.584Z,17.12
2018-05-07T10:16:31.194Z,17.35
2018-05-07T10:19:03.629Z,17.39
2018-05-07T10:21:42.444Z,17.13
2018-05-07T10:24:15.042Z,17.38
2018-05-07T10:26:47.528Z,16.99
2018-05-07T10:29:19.811Z,17.17
2018-05-07T10:31:55.457Z,17.10
2018-05-07T10:34:27.882Z,17.29
2018-05-07T10:37:00.412Z,17.43
2018-05-07T10:39:40.617Z,17.54
2018-05-07T10:42:13.404Z,17.63
2018-05-07T10:44:49.170Z,17.75
2018-05-07T10:47:21.866Z,17.80
2018-05-07T10:49:54.432Z,17.90
2018-05-07T10:52:35.148Z,18.10
2018-05-07T10:55:10.605Z,18.19
2018-05-07T10:57:49.858Z,18.11
2018-05-07T11:00:22.471Z,18.16
2018-05-07T11:02:58.226Z,18.28
2018-05-07T11:05:34.413Z,18.43
2018-05-07T11:08:06.913Z,18.58
2018-05-07T11:10:39.338Z,18.75
2018-05-07T11:13:14.984Z,18.79
2018-05-07T11:15:47.392Z,19.01
2018-05-07T11:18:23.224Z,19.14
2018-05-07T11:20:55.631Z,19.25
2018-05-07T11:23:34.506Z,19.47
2018-05-07T11:26:07.058Z,19.67
2018-05-07T11:28:39.818Z,19.31
2018-05-07T11:31:12.502Z,19.63
2018-05-07T11:33:47.988Z,19.03
2018-05-07T11:36:20.602Z,18.95
2018-05-07T11:38:47.109Z,19.15
2018-05-07T11:41:13.526Z,19.70
2018-05-07T11:43:43.173Z,19.84
2018-05-07T11:46:09.678Z,19.37
2018-05-07T11:48:36.071Z,19.66
2018-05-07T11:51:02.413Z,19.85
2018-05-07T11:53:28.739Z,20.41
2018-05-07T11:55:55.148Z,20.55
2018-05-07T11:58:21.452Z,20.69
2018-05-07T12:00:50.856Z,20.44
2018-05-07T12:03:20.255Z,20.40
2018-05-07T12:05:46.569Z,20.62
2018-05-07T12:08:12.881Z,20.72
2018-05-07T12:10:39.254Z,20.94
2018-05-07T12:13:05.559Z,21.21
2018-05-07T12:15:31.868Z,21.09
2018-05-07T12:18:01.360Z,20.97
2018-05-07T12:20:27.696Z,21.46
2018-05-07T12:22:58.651Z,21.82
2018-05-07T12:25:34.354Z,21.57
2018-05-07T12:28:05.752Z,21.89
2018-05-07T12:30:35.417Z,21.81
2018-05-07T12:33:06.256Z,22.54
2018-05-07T12:35:33.273Z,23.01
2018-05-07T12:38:02.806Z,23.67
2018-05-07T12:40:32.439Z,24.48
2018-05-07T12:42:59.116Z,24.60
2018-05-07T12:45:25.847Z,24.43
2018-05-07T12:47:52.895Z,23.94
2018-05-07T12:50:19.622Z,23.34
2018-05-07T12:52:52.559Z,23.62
2018-05-07T12:55:18.961Z,23.28
2018-05-07T12:57:45.277Z,23.43
2018-05-07T13:00:14.783Z,23.36
2018-05-07T13:02:41.135Z,23.20
2018-05-07T13:05:07.471Z,23.68
2018-05-07T13:07:33.845Z,24.56
2018-05-07T13:10:00.190Z,25.01
2018-05-07T13:12:26.532Z,25.69
2018-05-07T13:14:59.013Z,25.93
2018-05-07T13:17:25.359Z,25.23
2018-05-07T13:19:51.699Z,25.87
2018-05-07T13:22:21.187Z,26.04
2018-05-07T13:24:50.933Z,26.39
2018-05-07T13:27:17.224Z,26.31
2018-05-07T13:29:43.675Z,25.06
2018-05-07T13:32:16.647Z,24.75
2018-05-07T13:34:43.143Z,23.71
2018-05-07T13:37:12.591Z,24.13
2018-05-07T13:39:38.928Z,24.42
2018-05-07T13:42:05.281Z,25.10
2018-05-07T13:44:31.724Z,24.94
2018-05-07T13:46:58.080Z,24.51
2018-05-07T13:49:30.671Z,23.93
2018-05-07T13:52:00.125Z,23.09
2018-05-07T13:54:26.467Z,22.61
2018-05-07T13:56:56.556Z,22.30
2018-05-07T13:59:22.991Z,22.90
2018-05-07T14:01:54.447Z,23.39
2018-05-07T14:04:21.893Z,24.60
2018-05-07T14:09:28.645Z,24.27
2018-05-07T14:11:54.952Z,23.64
2018-05-07T14:14:21.388Z,23.34
2018-05-07T14:16:47.876Z,23.01
2018-05-07T14:19:14.175Z,22.99
2018-05-07T14:21:43.576Z,23.15
2018-05-07T14:24:09.920Z,22.93
2018-05-07T14:26:36.233Z,21.78
2018-05-07T14:29:02.693Z,22.05
2018-05-07T14:31:29.021Z,22.32
2018-05-07T14:33:55.354Z,22.17
2018-05-07T14:36:21.718Z,22.25
2018-05-07T14:38:48.104Z,21.73
2018-05-07T14:41:14.422Z,21.66
2018-05-07T14:43:43.848Z,21.69
2018-05-07T14:46:10.195Z,21.63
2018-05-07T14:48:36.541Z,21.84
2018-05-07T14:51:10.788Z,21.75
2018-05-07T14:53:37.103Z,21.95
2018-05-07T14:56:03.458Z,21.77
2018-05-07T14:58:29.829Z,21.50
2018-05-07T15:00:59.208Z,21.62
2018-05-07T15:03:25.586Z,21.57
2018-05-07T15:05:52.050Z,21.42
2018-05-07T15:08:18.370Z,21.39
2018-05-07T15:10:44.731Z,21.45
2018-05-07T15:13:14.366Z,21.21
2018-05-07T15:15:43.986Z,21.08
2018-05-07T15:18:13.419Z,21.21
2018-05-07T15:20:43.099Z,21.13
2018-05-07T15:23:09.452Z,20.99
2018-05-07T15:25:35.769Z,21.06
2018-05-07T15:28:08.240Z,20.91
2018-05-07T15:30:34.587Z,21.07
2018-05-07T15:33:00.918Z,21.04
2018-05-07T15:35:27.351Z,20.76
2018-05-07T15:37:53.939Z,20.67
2018-05-07T15:40:20.259Z,20.77
2018-05-07T15:42:46.654Z,20.11
2018-05-07T15:45:12.989Z,19.91
2018-05-07T15:47:39.304Z,19.73
2018-05-07T15:50:08.942Z,19.81
2018-05-07T15:52:40.312Z,19.97
2018-05-07T15:55:06.627Z,19.83
2018-05-07T15:57:36.226Z,19.46
2018-05-07T16:00:02.608Z,19.42
2018-05-07T16:02:28.943Z,19.69
2018-05-07T16:04:55.344Z,19.56
2018-05-07T16:07:21.702Z,19.55
2018-05-07T16:09:48.047Z,19.35
2018-05-07T16:12:17.808Z,18.95
2018-05-07T16:14:44.125Z,18.62
2018-05-07T16:17:10.482Z,18.75
2018-05-07T16:19:36.911Z,18.61
2018-05-07T16:22:03.435Z,18.61
2018-05-07T16:24:29.626Z,18.56
2018-05-07T16:26:59.293Z,18.83
2018-05-07T16:29:25.654Z,18.45
2018-05-07T16:31:51.999Z,18.05
2018-05-07T16:34:18.379Z,18.05
2018-05-07T16:36:44.742Z,18.21
2018-05-07T16:39:11.067Z,18.32
2018-05-07T16:41:37.472Z,18.47
2018-05-07T16:44:03.810Z,18.37
2018-05-07T16:46:30.188Z,18.38
2018-05-07T16:48:56.581Z,18.33
2018-05-07T16:51:22.892Z,18.26
2018-05-07T16:53:53.947Z,18.24
2018-05-07T16:56:20.371Z,18.23
2018-05-07T16:58:46.731Z,17.97
2018-05-07T17:01:13.144Z,17.55
2018-05-07T17:03:42.606Z,17.42
2018-05-07T17:06:08.925Z,17.22
2018-05-07T17:08:35.290Z,17.41
2018-05-07T17:11:04.976Z,17.57
2018-05-07T17:13:31.349Z,17.48
2018-05-07T17:58:12.804Z,15.63
2018-05-07T18:00:39.165Z,15.60
2018-05-07T18:03:05.528Z,15.65
2018-05-07T18:05:35.272Z,15.77
2018-05-07T18:08:01.718Z,15.74
2018-05-07T18:10:28.183Z,15.79
2018-05-07T18:13:00.638Z,15.69
2018-05-07T18:15:27.006Z,15.70
2018-05-07T18:17:59.125Z,15.54
2018-05-07T18:20:25.619Z,15.66
2018-05-07T18:22:52.000Z,15.76
2018-05-07T18:25:18.411Z,15.75
2018-05-07T18:27:44.816Z,15.78
2018-05-07T18:30:11.163Z,15.85
2018-05-07T18:32:37.498Z,15.88
2018-05-07T18:35:03.972Z,15.90
2018-05-07T18:37:30.357Z,15.87
2018-05-07T18:39:56.707Z,15.81
2018-05-07T18:42:23.439Z,15.79
2018-05-07T18:44:49.847Z,15.71
2018-05-07T18:47:16.221Z,15.64
2018-05-07T18:49:42.616Z,15.64
2018-05-07T18:52:09.172Z,15.59
2018-05-07T18:54:38.866Z,15.58
2018-05-07T18:57:11.409Z,15.44
2018-05-07T18:59:49.419Z,15.41
2018-05-07T19:02:25.199Z,15.32
2018-05-07T19:04:57.678Z,15.28
2018-05-07T19:07:33.325Z,15.37
2018-05-07T19:10:05.691Z,15.20
2018-05-07T19:12:41.463Z,15.26
2018-05-07T19:15:13.940Z,15.18
2018-05-07T19:17:53.032Z,15.17
2018-05-07T19:20:25.533Z,15.00
2018-05-07T19:22:58.126Z,14.89
2018-05-07T19:25:30.582Z,14.94
2018-05-07T19:28:03.094Z,14.81
2018-05-07T19:30:35.585Z,14.69
2018-05-07T19:33:11.085Z,14.65
2018-05-07T19:35:43.556Z,14.62
2018-05-07T19:38:16.073Z,14.64
2018-05-07T19:40:48.645Z,14.57
2018-05-07T19:43:20.942Z,14.55
2018-05-07T19:45:53.200Z,14.43
2018-05-07T19:48:28.925Z,14.24
2018-05-07T19:51:04.660Z,14.26
2018-05-07T19:53:40.339Z,14.17
2018-05-07T19:56:12.905Z,14.21
2018-05-07T19:58:45.329Z,14.21
2018-05-07T20:01:21.124Z,14.15
2018-05-07T20:03:53.605Z,14.05
2018-05-07T20:06:26.049Z,14.09
2018-05-07T20:08:58.665Z,13.97
2018-05-07T20:11:31.751Z,13.92
2018-05-07T20:14:04.231Z,13.86
2018-05-07T20:16:36.812Z,13.80
2018-05-07T20:19:09.358Z,13.54
2018-05-07T20:21:41.912Z,13.27
2018-05-07T20:24:14.344Z,13.14
2018-05-07T20:26:46.665Z,13.07
2018-05-07T20:29:25.209Z,12.72
2018-05-07T20:31:57.624Z,12.52
2018-05-07T20:34:33.300Z,12.84
2018-05-07T20:37:05.706Z,13.08
2018-05-07T20:39:37.958Z,13.13
2018-05-07T20:42:10.292Z,12.95
2018-05-07T20:44:42.778Z,12.44
2018-05-07T20:47:15.018Z,12.22
2018-05-07T20:49:50.617Z,12.39
2018-05-07T20:52:22.927Z,12.60
2018-05-07T20:54:55.233Z,12.52
2018-05-07T20:57:27.733Z,12.61
2018-05-07T21:00:03.101Z,12.67
2018-05-07T21:02:35.684Z,12.80
2018-05-07T21:05:11.305Z,12.75
2018-05-07T21:07:43.721Z,12.83
2018-05-07T21:10:19.235Z,12.86
2018-05-07T21:12:51.692Z,12.70
2018-05-07T21:15:27.239Z,12.64
2018-05-07T21:17:59.599Z,12.56
2018-05-07T21:20:35.011Z,12.42
2018-05-07T21:23:07.482Z,12.55
2018-05-07T21:25:43.181Z,12.53
2018-05-07T21:28:15.462Z,12.59
2018-05-07T21:30:47.827Z,12.59
2018-05-07T21:33:20.176Z,12.59
2018-05-07T21:35:55.747Z,12.43
2018-05-07T21:38:28.052Z,12.30
2018-05-07T21:41:06.635Z,12.38
2018-05-07T21:43:38.977Z,12.27
2018-05-07T21:46:11.360Z,12.42
2018-05-07T21:48:44.609Z,12.35
2018-05-07T21:51:17.109Z,12.44
2018-05-07T21:53:49.416Z,12.38
2018-05-07T21:56:24.770Z,12.25
2018-05-07T21:58:57.221Z,12.06
2018-05-07T22:01:29.466Z,11.90
2018-05-07T22:04:02.011Z,12.06
2018-05-07T22:06:37.737Z,12.10
2018-05-07T22:09:10.740Z,12.24
2018-05-07T22:11:46.479Z,12.40
2018-05-07T22:14:18.855Z,12.52
2018-05-07T22:16:54.287Z,12.55
2018-05-07T22:19:26.649Z,12.28
2018-05-07T22:22:02.110Z,11.32
2018-05-07T22:24:34.535Z,11.08
2018-05-07T22:27:09.934Z,11.09
2018-05-07T22:29:42.430Z,11.05
2018-05-07T22:32:14.789Z,11.14
2018-05-07T22:34:47.153Z,11.42
2018-05-07T22:37:22.622Z,11.58
2018-05-07T22:39:55.071Z,11.62
2018-05-07T22:42:30.914Z,11.75
2018-05-07T22:45:03.421Z,11.92
2018-05-07T22:47:38.851Z,12.02
2018-05-07T22:50:11.354Z,12.10
2018-05-07T22:52:43.709Z,12.28
2018-05-07T22:55:19.094Z,12.34
2018-05-07T22:57:51.471Z,12.32
2018-05-07T23:00:23.698Z,12.40
2018-05-07T23:02:59.115Z,12.39
2018-05-07T23:05:34.807Z,12.36
2018-05-07T23:08:10.481Z,12.32
2018-05-07T23:10:43.005Z,12.33
2018-05-07T23:13:15.265Z,12.32
2018-05-07T23:15:47.499Z,12.34
2018-05-07T23:18:19.774Z,12.47
2018-05-07T23:20:52.134Z,12.44
2018-05-07T23:23:27.931Z,12.40
2018-05-07T23:26:00.458Z,12.46
2018-05-07T23:28:35.829Z,12.63
2018-05-07T23:31:08.255Z,12.65
2018-05-07T23:33:43.878Z,12.43
2018-05-07T23:36:16.251Z,12.49
2018-05-07T23:38:48.630Z,12.44
2018-05-07T23:41:20.962Z,12.42
2018-05-07T23:43:56.750Z,12.52
2018-05-07T23:46:29.147Z,12.53
2018-05-07T23:49:04.566Z,12.51
2018-05-07T23:51:36.966Z,12.55
2018-05-07T23:54:12.691Z,12.43
2018-05-07T23:56:45.144Z,12.39
2018-05-07T23:59:17.650Z,12.41
